createdAt,value
2022-10-07T00:00:13.820Z,26.90
2022-10-07T00:02:15.844Z,27.00
2022-10-07T00:04:17.609Z,27.00
2022-10-07T00:06:21.315Z,26.90
2022-10-07T00:08:22.932Z,27.00
2022-10-07T00:10:24.543Z,26.90
2022-10-07T00:12:26.252Z,26.80
2022-10-07T00:14:27.907Z,26.70
2022-10-07T00:16:35.806Z,26.70
2022-10-07T00:18:41.937Z,27.30
2022-10-07T00:20:43.559Z,27.10
2022-10-07T00:22:45.188Z,27.20
2022-10-07T00:24:46.798Z,27.20
2022-10-07T00:26:48.512Z,27.30
2022-10-07T00:28:51.061Z,27.30
2022-10-07T00:31:00.875Z,27.30
2022-10-07T00:33:02.580Z,27.90
2022-10-07T00:35:06.901Z,27.50
2022-10-07T00:37:09.906Z,27.60
2022-10-07T00:39:14.610Z,27.60
2022-10-07T00:41:26.339Z,27.70
2022-10-07T00:43:31.108Z,28.40
2022-10-07T00:45:35.445Z,27.80
2022-10-07T00:47:37.182Z,27.80
2022-10-07T00:50:08.500Z,27.80
2022-10-07T00:52:10.903Z,28.30
2022-10-07T00:54:16.850Z,27.80
2022-10-07T00:56:18.970Z,28.20
2022-10-07T00:58:20.663Z,27.90
2022-10-07T01:00:23.966Z,28.00
2022-10-07T01:02:27.197Z,28.10
2022-10-07T01:04:31.325Z,28.30
2022-10-07T01:06:33.029Z,28.30
2022-10-07T01:08:34.867Z,28.30
2022-10-07T01:11:13.639Z,28.10
2022-10-07T01:13:32.361Z,28.50
2022-10-07T01:15:48.889Z,28.50
2022-10-07T01:18:12.466Z,28.80
2022-10-07T01:20:45.070Z,28.80
2022-10-07T01:22:50.144Z,28.90
2022-10-07T01:25:13.348Z,28.40
2022-10-07T01:27:24.112Z,29.20
2022-10-07T01:29:33.791Z,28.50
2022-10-07T01:31:40.721Z,28.40
2022-10-07T01:33:44.937Z,28.30
2022-10-07T01:35:50.535Z,28.30
2022-10-07T01:38:00.254Z,28.50
2022-10-07T01:40:07.356Z,28.90
2022-10-07T01:42:09.365Z,28.90
2022-10-07T01:44:14.201Z,28.70
2022-10-07T01:46:22.967Z,29.00
2022-10-07T01:48:25.160Z,29.90
2022-10-07T01:50:29.337Z,29.00
2022-10-07T01:52:42.278Z,29.10
2022-10-07T01:55:04.007Z,29.70
2022-10-07T01:57:26.591Z,29.90
2022-10-07T01:59:40.351Z,29.70
2022-10-07T02:01:46.972Z,29.60
2022-10-07T02:04:04.659Z,29.30
2022-10-07T02:06:16.338Z,30.00
2022-10-07T02:08:21.652Z,29.60
2022-10-07T02:10:34.223Z,29.40
2022-10-07T02:13:04.261Z,29.90
2022-10-07T02:15:19.977Z,30.20
2022-10-07T02:17:24.120Z,29.90
2022-10-07T02:19:41.256Z,29.40
2022-10-07T02:21:46.371Z,29.50
2022-10-07T02:23:49.836Z,29.40
2022-10-07T02:25:54.580Z,29.40
2022-10-07T02:28:03.518Z,29.50
2022-10-07T02:30:18.216Z,29.40
2022-10-07T02:32:29.820Z,30.10
2022-10-07T02:34:32.463Z,29.90
2022-10-07T02:36:46.559Z,29.70
2022-10-07T02:38:48.342Z,30.20
2022-10-07T02:41:08.442Z,29.70
2022-10-07T02:43:51.853Z,30.50
2022-10-07T02:46:24.255Z,30.80
2022-10-07T02:48:30.465Z,30.20
2022-10-07T02:50:39.421Z,30.00
2022-10-07T02:52:42.373Z,30.00
2022-10-07T02:54:51.762Z,29.70
2022-10-07T02:56:54.215Z,29.90
2022-10-07T02:58:57.542Z,29.70
2022-10-07T03:01:03.056Z,29.70
2022-10-07T03:03:06.340Z,29.80
2022-10-07T03:05:28.130Z,29.80
2022-10-07T03:07:35.192Z,30.00
2022-10-07T03:09:38.786Z,29.90
2022-10-07T03:11:43.150Z,30.00
2022-10-07T03:13:45.732Z,29.90
2022-10-07T03:15:47.478Z,29.80
2022-10-07T03:17:53.391Z,29.80
2022-10-07T03:19:55.040Z,29.90
2022-10-07T03:21:56.849Z,29.90
2022-10-07T03:24:01.406Z,29.90
2022-10-07T03:26:05.049Z,30.00
2022-10-07T03:28:06.782Z,30.00
2022-10-07T03:30:10.500Z,30.00
2022-10-07T03:32:13.046Z,30.00
2022-10-07T03:34:16.758Z,30.00
2022-10-07T03:36:23.000Z,29.90
2022-10-07T03:38:24.757Z,29.80
2022-10-07T03:40:26.918Z,29.90
2022-10-07T03:42:28.801Z,29.90
2022-10-07T03:44:31.607Z,29.90
2022-10-07T03:46:34.222Z,29.90
2022-10-07T03:48:36.304Z,29.90
2022-10-07T03:50:38.073Z,29.80
2022-10-07T03:52:45.577Z,29.90
2022-10-07T03:54:49.889Z,30.00
2022-10-07T03:56:51.788Z,29.70
2022-10-07T03:58:53.482Z,30.30
2022-10-07T04:01:10.604Z,29.80
2022-10-07T04:03:18.495Z,30.30
2022-10-07T04:05:22.825Z,29.90
2022-10-07T04:07:25.488Z,29.90
2022-10-07T04:09:27.161Z,29.90
2022-10-07T04:11:29.640Z,30.50
2022-10-07T04:13:34.433Z,29.90
2022-10-07T04:15:38.748Z,30.00
2022-10-07T04:17:44.972Z,30.00
2022-10-07T04:19:46.944Z,30.00
2022-10-07T04:21:51.311Z,30.00
2022-10-07T04:23:55.524Z,30.30
2022-10-07T04:25:57.620Z,30.20
2022-10-07T04:28:04.165Z,30.00
2022-10-07T04:30:06.509Z,30.00
2022-10-07T04:32:08.296Z,30.00
2022-10-07T04:34:10.110Z,30.00
2022-10-07T04:36:17.427Z,30.00
2022-10-07T04:38:30.496Z,30.00
2022-10-07T04:40:38.457Z,30.00
2022-10-07T04:43:00.880Z,31.00
2022-10-07T04:45:03.276Z,31.10
2022-10-07T04:47:07.614Z,31.10
2022-10-07T04:49:14.139Z,31.00
2022-10-07T04:51:16.029Z,31.10
2022-10-07T04:53:21.214Z,31.20
2022-10-07T04:55:25.992Z,31.40
2022-10-07T04:57:27.873Z,31.30
2022-10-07T04:59:31.840Z,31.30
2022-10-07T05:01:34.407Z,31.30
2022-10-07T05:03:38.752Z,31.30
2022-10-07T05:05:45.674Z,31.30
2022-10-07T05:07:51.548Z,31.40
2022-10-07T05:09:54.490Z,32.10
2022-10-07T05:11:56.282Z,31.10
2022-10-07T05:13:58.398Z,31.20
2022-10-07T05:16:02.287Z,31.40
2022-10-07T05:18:07.080Z,31.70
2022-10-07T05:20:12.199Z,31.40
2022-10-07T05:22:16.443Z,31.50
2022-10-07T05:24:18.241Z,31.60
2022-10-07T05:26:20.024Z,31.70
2022-10-07T05:28:26.952Z,31.60
2022-10-07T05:30:28.759Z,32.30
2022-10-07T05:32:30.518Z,31.60
2022-10-07T05:34:33.273Z,31.60
2022-10-07T05:36:35.269Z,31.70
2022-10-07T05:38:40.556Z,31.70
2022-10-07T05:40:44.432Z,31.70
2022-10-07T05:42:46.285Z,31.80
2022-10-07T05:44:50.495Z,31.80
2022-10-07T05:46:53.069Z,31.60
2022-10-07T05:48:54.900Z,31.80
2022-10-07T05:51:00.813Z,31.70
2022-10-07T05:53:06.387Z,31.60
2022-10-07T05:55:08.815Z,31.60
2022-10-07T05:57:10.866Z,31.70
2022-10-07T05:59:12.534Z,31.60
2022-10-07T06:01:18.546Z,31.40
2022-10-07T06:03:24.583Z,31.60
2022-10-07T06:05:29.856Z,31.60
2022-10-07T06:07:36.259Z,31.70
2022-10-07T06:09:57.816Z,31.90
2022-10-07T06:12:18.079Z,31.80
2022-10-07T06:14:21.290Z,31.80
2022-10-07T06:16:24.140Z,31.90
2022-10-07T06:18:26.202Z,31.90
2022-10-07T06:20:27.965Z,32.10
2022-10-07T06:22:34.074Z,32.20
2022-10-07T06:24:36.198Z,32.60
2022-10-07T06:26:38.543Z,32.40
2022-10-07T06:28:41.815Z,32.60
2022-10-07T06:30:45.290Z,32.80
2022-10-07T06:32:47.055Z,32.80
2022-10-07T06:34:48.723Z,33.00
2022-10-07T06:36:50.991Z,33.20
2022-10-07T06:38:54.426Z,33.30
2022-10-07T06:41:03.077Z,33.40
2022-10-07T06:43:07.464Z,33.10
2022-10-07T06:45:18.934Z,32.90
2022-10-07T06:47:26.185Z,33.10
2022-10-07T06:49:27.857Z,33.10
2022-10-07T06:51:32.174Z,33.30
2022-10-07T06:53:34.091Z,33.40
2022-10-07T06:55:37.663Z,33.60
2022-10-07T06:57:45.745Z,33.70
2022-10-07T07:00:02.682Z,33.60
2022-10-07T07:02:06.536Z,33.50
2022-10-07T07:04:08.826Z,33.40
2022-10-07T07:06:11.453Z,33.30
2022-10-07T07:08:15.693Z,33.50
2022-10-07T07:10:17.588Z,33.70
2022-10-07T07:12:25.188Z,34.40
2022-10-07T07:14:32.272Z,34.00
2022-10-07T07:16:39.173Z,34.30
2022-10-07T07:18:43.913Z,33.70
2022-10-07T07:20:45.759Z,34.00
2022-10-07T07:22:52.293Z,34.20
2022-10-07T07:24:56.201Z,34.30
2022-10-07T07:27:00.505Z,34.70
2022-10-07T07:29:06.374Z,34.70
2022-10-07T07:31:13.679Z,35.00
2022-10-07T07:33:15.389Z,34.90
2022-10-07T07:35:17.227Z,35.10
2022-10-07T07:37:21.217Z,35.20
2022-10-07T07:39:28.377Z,35.40
2022-10-07T07:41:46.561Z,35.60
2022-10-07T07:43:54.046Z,35.70
2022-10-07T07:45:58.749Z,35.90
2022-10-07T07:48:05.437Z,36.30
2022-10-07T07:50:11.202Z,36.60
2022-10-07T07:52:12.937Z,36.60
2022-10-07T07:54:19.685Z,37.00
2022-10-07T07:56:26.204Z,37.00
2022-10-07T07:58:28.368Z,37.00
2022-10-07T08:00:30.319Z,37.30
2022-10-07T08:02:38.171Z,37.00
2022-10-07T08:04:43.424Z,37.20
2022-10-07T08:06:45.404Z,37.20
2022-10-07T08:08:47.968Z,36.90
2022-10-07T08:10:51.914Z,36.60
2022-10-07T08:12:56.506Z,36.60
2022-10-07T08:14:58.303Z,37.00
2022-10-07T08:17:00.164Z,37.20
2022-10-07T08:19:02.470Z,37.20
2022-10-07T08:21:05.202Z,37.20
2022-10-07T08:23:08.033Z,37.00
2022-10-07T08:25:09.750Z,36.70
2022-10-07T08:27:11.626Z,36.80
2022-10-07T08:29:16.782Z,36.70
2022-10-07T08:31:20.773Z,36.80
2022-10-07T08:33:22.744Z,36.80
2022-10-07T08:35:24.398Z,36.60
2022-10-07T08:37:26.009Z,36.50
2022-10-07T08:39:29.420Z,35.90
2022-10-07T08:41:54.524Z,35.80
2022-10-07T08:43:59.338Z,35.90
2022-10-07T08:46:04.600Z,35.90
2022-10-07T08:48:16.867Z,35.90
2022-10-07T08:50:30.881Z,35.90
2022-10-07T08:52:38.929Z,35.40
2022-10-07T08:54:40.550Z,34.90
2022-10-07T08:56:44.476Z,34.50
2022-10-07T08:59:17.326Z,34.40
2022-10-07T09:01:24.117Z,34.00
2022-10-07T09:03:45.176Z,33.60
2022-10-07T09:05:49.486Z,33.30
2022-10-07T09:08:02.749Z,33.00
2022-10-07T09:10:07.343Z,33.00
2022-10-07T09:12:23.025Z,32.80
2022-10-07T09:14:29.600Z,32.80
2022-10-07T09:16:38.230Z,32.80
2022-10-07T09:18:47.676Z,32.00
2022-10-07T09:20:53.465Z,32.00
2022-10-07T09:22:57.580Z,31.50
2022-10-07T09:25:19.088Z,31.40
2022-10-07T09:27:23.004Z,31.00
2022-10-07T09:29:26.672Z,30.60
2022-10-07T09:31:29.450Z,28.60
2022-10-07T09:33:31.877Z,27.10
2022-10-07T09:35:35.835Z,26.40
2022-10-07T09:37:58.982Z,26.00
2022-10-07T09:41:04.171Z,25.80
2022-10-07T09:43:13.952Z,25.90
2022-10-07T09:45:26.874Z,25.60
2022-10-07T09:47:35.982Z,25.10
2022-10-07T09:49:48.724Z,24.90
2022-10-07T09:52:02.298Z,24.40
2022-10-07T09:54:06.633Z,24.50
2022-10-07T09:56:34.698Z,24.70
2022-10-07T09:58:38.624Z,24.40
2022-10-07T10:00:43.939Z,24.90
2022-10-07T10:03:05.205Z,24.20
2022-10-07T10:05:23.850Z,23.70
2022-10-07T10:07:33.686Z,23.50
2022-10-07T10:09:35.468Z,22.70
2022-10-07T10:11:37.300Z,22.20
2022-10-07T10:13:43.354Z,22.20
2022-10-07T10:15:48.291Z,22.30
2022-10-07T10:17:50.962Z,21.30
2022-10-07T10:19:53.793Z,21.40
2022-10-07T10:22:01.444Z,21.00
2022-10-07T10:24:16.628Z,21.00
2022-10-07T10:26:47.709Z,21.00
2022-10-07T10:28:53.667Z,20.70
2022-10-07T10:31:09.763Z,20.90
2022-10-07T10:33:47.604Z,21.30
2022-10-07T10:36:07.982Z,21.50
2022-10-07T10:38:25.393Z,21.40
2022-10-07T10:40:57.807Z,21.50
2022-10-07T10:43:35.843Z,20.30
2022-10-07T10:45:37.431Z,20.50
2022-10-07T10:48:05.281Z,20.70
2022-10-07T10:50:23.418Z,20.80
2022-10-07T10:52:30.120Z,19.90
2022-10-07T10:54:47.137Z,20.10
2022-10-07T10:57:02.600Z,19.80
2022-10-07T10:59:04.216Z,19.80
2022-10-07T11:01:23.931Z,19.10
2022-10-07T11:03:44.722Z,19.00
2022-10-07T11:05:50.715Z,19.20
2022-10-07T11:08:22.282Z,19.20
2022-10-07T11:10:41.554Z,19.00
2022-10-07T11:12:50.815Z,19.10
2022-10-07T11:15:05.013Z,18.50
2022-10-07T11:17:14.185Z,18.30
2022-10-07T11:19:34.666Z,18.60
2022-10-07T11:21:58.067Z,19.10
2022-10-07T11:24:26.889Z,19.40
2022-10-07T11:26:38.613Z,17.30
2022-10-07T11:28:42.890Z,17.30
2022-10-07T11:30:57.537Z,17.20
2022-10-07T11:33:08.396Z,17.20
2022-10-07T11:35:34.809Z,18.10
2022-10-07T11:37:43.678Z,17.30
2022-10-07T11:39:45.861Z,16.70
2022-10-07T11:41:59.401Z,17.00
2022-10-07T11:44:08.287Z,17.40
2022-10-07T11:46:21.934Z,17.20
2022-10-07T11:48:39.417Z,16.70
2022-10-07T11:50:59.953Z,17.10
2022-10-07T11:53:09.524Z,16.70
2022-10-07T11:55:23.335Z,16.30
2022-10-07T11:57:29.042Z,15.70
2022-10-07T11:59:41.168Z,16.00
2022-10-07T12:01:49.591Z,15.70
2022-10-07T12:03:56.390Z,16.30
2022-10-07T12:06:07.867Z,16.30
2022-10-07T12:08:30.166Z,16.10
2022-10-07T12:10:34.691Z,16.50
2022-10-07T12:12:42.993Z,16.30
2022-10-07T12:14:59.182Z,17.20
2022-10-07T12:17:19.035Z,17.70
2022-10-07T12:19:23.819Z,17.40
2022-10-07T12:21:25.706Z,16.20
2022-10-07T12:23:37.586Z,15.40
2022-10-07T12:25:49.125Z,16.10
2022-10-07T12:27:51.290Z,15.50
2022-10-07T12:29:59.540Z,15.60
2022-10-07T12:32:01.527Z,15.60
2022-10-07T12:34:06.215Z,15.70
2022-10-07T12:36:34.171Z,15.60
2022-10-07T12:38:38.591Z,16.10
2022-10-07T12:40:42.234Z,15.90
2022-10-07T12:42:53.350Z,15.70
2022-10-07T12:44:57.026Z,15.90
2022-10-07T12:47:12.854Z,16.00
2022-10-07T12:49:40.036Z,15.30
2022-10-07T12:51:43.813Z,15.40
2022-10-07T12:53:51.842Z,15.50
2022-10-07T12:55:56.383Z,14.70
2022-10-07T12:58:19.300Z,14.00
2022-10-07T13:00:25.211Z,14.00
2022-10-07T13:02:41.775Z,14.20
2022-10-07T13:05:12.270Z,14.40
2022-10-07T13:07:35.633Z,14.80
2022-10-07T13:10:05.414Z,14.80
2022-10-07T13:13:04.361Z,14.80
2022-10-07T13:15:23.316Z,15.40
2022-10-07T13:17:46.948Z,14.80
2022-10-07T13:20:16.564Z,14.50
2022-10-07T13:22:19.993Z,14.30
2022-10-07T13:24:28.184Z,13.90
2022-10-07T13:26:29.999Z,13.80
2022-10-07T13:28:46.718Z,13.70
2022-10-07T13:30:52.610Z,13.90
2022-10-07T13:32:54.256Z,13.90
2022-10-07T13:35:19.260Z,14.00
2022-10-07T13:37:32.986Z,14.50
2022-10-07T13:39:34.662Z,14.20
2022-10-07T13:41:37.638Z,14.40
2022-10-07T13:43:42.859Z,15.00
2022-10-07T13:45:49.575Z,14.80
2022-10-07T13:47:51.703Z,15.30
2022-10-07T13:49:54.284Z,15.20
2022-10-07T13:51:59.290Z,15.20
2022-10-07T13:54:04.198Z,15.40
2022-10-07T13:56:17.088Z,15.40
2022-10-07T13:58:19.682Z,15.10
2022-10-07T14:00:24.818Z,14.50
2022-10-07T14:02:29.710Z,14.60
2022-10-07T14:04:33.982Z,14.40
2022-10-07T14:06:37.667Z,14.50
2022-10-07T14:08:50.377Z,14.80
2022-10-07T14:10:59.508Z,14.50
2022-10-07T14:13:07.098Z,14.50
2022-10-07T14:15:19.481Z,14.90
2022-10-07T14:17:28.218Z,14.90
2022-10-07T14:19:34.389Z,15.00
2022-10-07T14:21:41.151Z,15.40
2022-10-07T14:23:46.634Z,15.80
2022-10-07T14:25:51.287Z,15.90
2022-10-07T14:28:04.277Z,15.90
2022-10-07T14:30:26.239Z,15.70
2022-10-07T14:32:46.891Z,15.80
2022-10-07T14:35:07.781Z,15.20
2022-10-07T14:37:28.439Z,15.40
2022-10-07T14:39:37.144Z,15.30
2022-10-07T14:41:38.812Z,15.00
2022-10-07T14:43:43.931Z,15.20
2022-10-07T14:45:46.423Z,15.10
2022-10-07T14:47:49.513Z,15.20
2022-10-07T14:49:52.741Z,15.20
2022-10-07T14:51:56.973Z,15.40
2022-10-07T14:54:05.018Z,15.50
2022-10-07T14:56:07.748Z,15.70
2022-10-07T14:58:10.918Z,15.70
2022-10-07T15:00:20.140Z,15.20
2022-10-07T15:02:22.375Z,15.10
2022-10-07T15:04:26.768Z,14.60
2022-10-07T15:06:29.162Z,14.60
2022-10-07T15:08:31.261Z,14.70
2022-10-07T15:10:33.251Z,14.90
2022-10-07T15:12:34.882Z,15.30
2022-10-07T15:14:36.716Z,14.10
2022-10-07T15:16:38.803Z,14.20
2022-10-07T15:18:45.142Z,14.00
2022-10-07T15:20:56.552Z,14.30
2022-10-07T15:23:02.416Z,13.70
2022-10-07T15:25:05.886Z,13.10
2022-10-07T15:27:09.685Z,12.70
2022-10-07T15:29:14.387Z,13.10
2022-10-07T15:31:17.590Z,12.90
2022-10-07T15:33:19.300Z,12.50
2022-10-07T15:35:24.288Z,12.30
2022-10-07T15:37:27.365Z,11.90
2022-10-07T15:39:36.182Z,12.10
2022-10-07T15:41:42.633Z,12.00
2022-10-07T15:43:44.268Z,11.80
2022-10-07T15:45:48.438Z,12.00
2022-10-07T15:48:00.169Z,12.20
2022-10-07T15:50:02.349Z,12.20
2022-10-07T15:52:04.044Z,12.50
2022-10-07T15:54:10.171Z,12.40
2022-10-07T15:56:11.862Z,12.70
2022-10-07T15:58:13.458Z,12.40
2022-10-07T16:00:15.928Z,12.50
2022-10-07T16:02:22.779Z,12.80
2022-10-07T16:04:24.554Z,12.90
2022-10-07T16:06:30.057Z,13.30
2022-10-07T16:08:35.299Z,13.30
2022-10-07T16:10:37.455Z,13.50
2022-10-07T16:12:39.141Z,13.70
2022-10-07T16:14:40.857Z,13.70
2022-10-07T16:16:42.966Z,13.90
2022-10-07T16:18:51.057Z,13.90
2022-10-07T16:20:52.813Z,14.00
2022-10-07T16:22:57.975Z,14.40
2022-10-07T16:24:59.802Z,14.60
2022-10-07T16:27:04.581Z,14.70
2022-10-07T16:29:31.795Z,14.40
2022-10-07T16:31:35.542Z,14.50
2022-10-07T16:33:37.192Z,14.50
2022-10-07T16:35:40.337Z,14.50
2022-10-07T16:37:42.041Z,14.50
2022-10-07T16:39:46.118Z,14.70
2022-10-07T16:41:49.392Z,14.80
2022-10-07T16:43:51.444Z,14.90
2022-10-07T16:45:53.211Z,14.80
2022-10-07T16:47:56.391Z,14.80
2022-10-07T16:49:58.124Z,14.60
2022-10-07T16:52:00.727Z,14.80
2022-10-07T16:54:05.284Z,14.80
2022-10-07T16:56:07.670Z,14.70
2022-10-07T16:58:09.353Z,14.70
2022-10-07T17:00:11.418Z,14.80
2022-10-07T17:02:14.012Z,14.80
2022-10-07T17:04:15.838Z,15.40
2022-10-07T17:06:19.811Z,14.90
2022-10-07T17:08:22.616Z,15.00
2022-10-07T17:10:24.454Z,15.10
2022-10-07T17:12:29.236Z,15.10
2022-10-07T17:14:32.893Z,15.30
2022-10-07T17:16:43.323Z,15.40
2022-10-07T17:18:45.057Z,15.50
2022-10-07T17:20:50.797Z,15.70
2022-10-07T17:22:52.440Z,15.80
2022-10-07T17:24:54.054Z,15.70
2022-10-07T17:26:56.240Z,15.80
2022-10-07T17:29:12.438Z,16.10
2022-10-07T17:31:15.685Z,16.10
2022-10-07T17:33:17.362Z,16.10
2022-10-07T17:35:19.323Z,16.00
2022-10-07T17:37:20.967Z,16.00
2022-10-07T17:39:22.812Z,16.00
2022-10-07T17:41:26.993Z,15.90
2022-10-07T17:43:29.434Z,15.90
2022-10-07T17:45:34.834Z,15.90
2022-10-07T17:47:36.508Z,16.10
2022-10-07T17:49:38.363Z,16.30
2022-10-07T17:51:42.369Z,16.30
2022-10-07T17:53:44.841Z,16.30
2022-10-07T17:55:54.750Z,16.40
2022-10-07T17:57:56.380Z,16.70
2022-10-07T17:59:59.406Z,16.70
2022-10-07T18:02:01.089Z,16.90
2022-10-07T18:04:09.142Z,16.80
2022-10-07T18:06:11.493Z,17.10
2022-10-07T18:08:18.432Z,17.20
2022-10-07T18:10:20.341Z,17.30
2022-10-07T18:12:40.560Z,17.30
2022-10-07T18:15:00.634Z,17.60
2022-10-07T18:17:05.999Z,17.50
2022-10-07T18:19:14.913Z,17.60
2022-10-07T18:21:17.057Z,17.70
2022-10-07T18:23:20.093Z,17.90
2022-10-07T18:25:24.542Z,17.90
2022-10-07T18:27:27.409Z,18.10
2022-10-07T18:29:37.378Z,18.20
2022-10-07T18:31:41.531Z,18.40
2022-10-07T18:33:43.818Z,18.50
2022-10-07T18:35:45.500Z,18.50
2022-10-07T18:37:47.646Z,18.60
2022-10-07T18:39:50.383Z,18.70
2022-10-07T18:41:52.053Z,18.90
2022-10-07T18:43:55.780Z,19.00
2022-10-07T18:46:18.091Z,19.20
2022-10-07T18:48:21.726Z,19.60
2022-10-07T18:50:23.830Z,19.30
2022-10-07T18:52:25.576Z,19.30
2022-10-07T18:54:27.297Z,19.40
2022-10-07T18:56:28.925Z,19.60
2022-10-07T18:58:34.568Z,19.80
2022-10-07T19:00:41.575Z,20.00
2022-10-07T19:02:45.741Z,20.20
2022-10-07T19:04:47.342Z,20.30
2022-10-07T19:06:49.412Z,20.60
2022-10-07T19:08:56.553Z,20.90
2022-10-07T19:11:06.656Z,21.10
2022-10-07T19:13:33.507Z,21.20
2022-10-07T19:15:36.794Z,21.10
2022-10-07T19:17:38.431Z,21.10
2022-10-07T19:19:42.365Z,21.20
2022-10-07T19:21:48.246Z,21.40
2022-10-07T19:23:54.683Z,21.50
2022-10-07T19:25:58.626Z,21.60
2022-10-07T19:28:01.268Z,21.70
2022-10-07T19:30:03.113Z,21.80
2022-10-07T19:32:08.477Z,22.00
2022-10-07T19:34:19.281Z,22.10
2022-10-07T19:36:21.729Z,22.50
2022-10-07T19:38:24.251Z,22.20
2022-10-07T19:40:25.914Z,22.40
2022-10-07T19:42:28.530Z,22.60
2022-10-07T19:44:33.482Z,22.80
2022-10-07T19:46:35.472Z,23.10
2022-10-07T19:48:38.543Z,23.70
2022-10-07T19:50:40.258Z,23.30
2022-10-07T19:52:42.075Z,23.50
2022-10-07T19:54:47.045Z,23.80
2022-10-07T19:56:51.209Z,24.10
2022-10-07T19:58:58.786Z,24.60
2022-10-07T20:01:05.576Z,25.10
2022-10-07T20:03:09.922Z,25.20
2022-10-07T20:05:11.602Z,25.10
2022-10-07T20:07:17.924Z,25.30
2022-10-07T20:09:20.314Z,26.00
2022-10-07T20:11:22.534Z,25.50
2022-10-07T20:13:24.141Z,25.40
2022-10-07T20:15:26.069Z,25.30
2022-10-07T20:17:32.618Z,25.30
2022-10-07T20:19:35.382Z,25.50
2022-10-07T20:21:39.191Z,25.90
2022-10-07T20:23:43.098Z,25.60
2022-10-07T20:25:48.023Z,25.70
2022-10-07T20:27:49.773Z,25.90
2022-10-07T20:29:57.474Z,25.90
2022-10-07T20:31:59.092Z,25.90
2022-10-07T20:34:01.602Z,26.00
2022-10-07T20:36:03.919Z,26.20
2022-10-07T20:38:05.813Z,26.20
2022-10-07T20:40:27.537Z,26.40
2022-10-07T20:42:33.017Z,26.50
2022-10-07T20:44:36.782Z,26.60
2022-10-07T20:46:38.741Z,26.70
2022-10-07T20:48:45.430Z,27.00
2022-10-07T20:50:47.331Z,27.30
2022-10-07T20:52:49.423Z,27.50
2022-10-07T20:54:52.658Z,27.50
2022-10-07T20:56:57.644Z,27.50
2022-10-07T20:59:01.794Z,27.70
2022-10-07T21:01:09.616Z,27.70
2022-10-07T21:03:11.749Z,27.90
2022-10-07T21:05:13.562Z,27.80
2022-10-07T21:07:16.857Z,27.90
2022-10-07T21:09:19.448Z,28.10
2022-10-07T21:11:22.440Z,28.20
2022-10-07T21:13:24.093Z,28.10
2022-10-07T21:15:25.764Z,28.10
2022-10-07T21:17:27.494Z,28.00
2022-10-07T21:19:32.277Z,28.10
2022-10-07T21:21:34.134Z,28.10
2022-10-07T21:23:36.062Z,28.00
2022-10-07T21:25:37.695Z,27.90
2022-10-07T21:27:39.773Z,28.00
2022-10-07T21:29:43.219Z,28.00
2022-10-07T21:31:46.446Z,28.00
2022-10-07T21:33:50.417Z,27.90
2022-10-07T21:35:52.052Z,28.10
2022-10-07T21:37:53.692Z,28.00
2022-10-07T21:39:57.924Z,28.10
2022-10-07T21:41:59.722Z,28.20
2022-10-07T21:44:05.501Z,28.40
2022-10-07T21:46:07.722Z,28.50
2022-10-07T21:48:11.832Z,28.30
2022-10-07T21:50:15.745Z,28.30
2022-10-07T21:52:17.610Z,28.30
2022-10-07T21:54:21.449Z,28.30
2022-10-07T21:56:23.085Z,28.30
2022-10-07T21:58:27.910Z,28.10
2022-10-07T22:00:29.621Z,28.20
2022-10-07T22:02:31.834Z,28.10
2022-10-07T22:04:33.918Z,28.00
2022-10-07T22:06:55.192Z,28.00
2022-10-07T22:08:57.382Z,28.00
2022-10-07T22:11:08.183Z,27.80
2022-10-07T22:13:11.108Z,27.80
2022-10-07T22:15:12.848Z,27.90
2022-10-07T22:17:14.633Z,27.90
2022-10-07T22:19:17.489Z,27.90
2022-10-07T22:21:23.173Z,27.80
2022-10-07T22:23:24.790Z,28.00
2022-10-07T22:25:26.433Z,28.50
2022-10-07T22:27:28.120Z,28.00
2022-10-07T22:29:29.893Z,28.10
2022-10-07T22:31:31.595Z,28.00
2022-10-07T22:33:39.793Z,28.10
2022-10-07T22:35:41.500Z,28.10
2022-10-07T22:37:44.827Z,28.10
2022-10-07T22:39:46.479Z,28.00
2022-10-07T22:41:51.518Z,28.00
2022-10-07T22:43:53.681Z,28.10
2022-10-07T22:46:01.305Z,28.00
2022-10-07T22:48:04.030Z,28.20
2022-10-07T22:50:08.156Z,28.00
2022-10-07T22:52:12.262Z,28.10
2022-10-07T22:54:14.334Z,28.00
2022-10-07T22:56:20.814Z,28.00
2022-10-07T22:58:22.420Z,28.10
2022-10-07T23:00:24.055Z,28.10
2022-10-07T23:02:28.435Z,27.90
2022-10-07T23:04:30.837Z,27.90
2022-10-07T23:06:34.237Z,28.10
2022-10-07T23:08:36.211Z,28.10
2022-10-07T23:10:37.815Z,28.00
2022-10-07T23:12:39.545Z,28.00
2022-10-07T23:14:41.167Z,28.00
2022-10-07T23:16:44.711Z,28.00
2022-10-07T23:18:48.172Z,28.10
2022-10-07T23:21:00.817Z,28.10
2022-10-07T23:23:06.282Z,28.20
2022-10-07T23:25:08.295Z,27.90
2022-10-07T23:27:10.639Z,27.90
2022-10-07T23:29:13.216Z,27.80
2022-10-07T23:31:18.122Z,27.80
2022-10-07T23:33:20.003Z,27.60
2022-10-07T23:35:23.594Z,27.60
2022-10-07T23:37:25.290Z,27.60
2022-10-07T23:39:27.507Z,28.20
2022-10-07T23:41:30.862Z,27.70
2022-10-07T23:43:33.400Z,27.70
2022-10-07T23:45:35.113Z,27.60
2022-10-07T23:47:36.702Z,27.70
2022-10-07T23:49:38.463Z,27.60
2022-10-07T23:51:40.169Z,27.70
2022-10-07T23:53:41.844Z,27.80
2022-10-07T23:55:47.975Z,27.80
2022-10-07T23:57:49.631Z,28.10
2022-10-07T23:59:54.362Z,27.90
